createdAt,value
2023-01-18T00:01:19.179Z,12.30
2023-01-18T00:03:47.620Z,11.63
2023-01-18T00:06:17.995Z,12.00
2023-01-18T00:08:46.375Z,11.33
2023-01-18T00:11:17.041Z,11.27
2023-01-18T00:13:45.594Z,12.03
2023-01-18T00:16:16.625Z,13.13
2023-01-18T00:18:45.511Z,13.20
2023-01-18T00:21:14.016Z,13.60
2023-01-18T00:23:43.649Z,14.17
2023-01-18T00:26:13.616Z,15.17
2023-01-18T00:28:42.216Z,14.70
2023-01-18T00:31:12.146Z,14.80
2023-01-18T00:33:40.499Z,14.10
2023-01-18T00:36:09.122Z,15.23
2023-01-18T00:38:37.359Z,14.77
2023-01-18T00:41:07.106Z,14.80
2023-01-18T00:43:40.213Z,16.03
2023-01-18T00:46:10.309Z,15.37
2023-01-18T00:48:40.096Z,16.87
2023-01-18T00:51:08.678Z,16.83
2023-01-18T00:53:38.116Z,18.63
2023-01-18T00:56:09.097Z,21.73
2023-01-18T00:58:38.060Z,19.57
2023-01-18T01:01:07.080Z,18.03
2023-01-18T01:03:55.581Z,18.03
2023-01-18T01:06:46.012Z,16.70
2023-01-18T01:09:16.296Z,17.60
2023-01-18T01:12:00.346Z,17.10
2023-01-18T01:14:46.010Z,16.03
2023-01-18T01:17:31.910Z,15.37
2023-01-18T01:20:17.264Z,14.90
2023-01-18T01:23:02.764Z,16.30
2023-01-18T01:25:48.427Z,16.23
2023-01-18T01:28:18.057Z,15.30
2023-01-18T01:30:46.402Z,16.20
2023-01-18T01:33:14.913Z,14.93
2023-01-18T01:35:43.131Z,14.90
2023-01-18T01:38:11.392Z,15.43
2023-01-18T01:40:39.626Z,15.43
2023-01-18T01:43:13.570Z,14.57
2023-01-18T01:45:43.283Z,15.47
2023-01-18T01:48:12.167Z,16.97
2023-01-18T01:50:41.616Z,15.27
2023-01-18T01:53:12.170Z,16.60
2023-01-18T01:55:41.287Z,16.73
2023-01-18T01:58:12.393Z,15.00
2023-01-18T02:00:42.759Z,14.80
2023-01-18T02:03:15.702Z,14.70
2023-01-18T02:05:46.651Z,15.37
2023-01-18T02:08:22.756Z,15.57
2023-01-18T02:10:51.762Z,15.27
2023-01-18T02:13:22.229Z,14.67
2023-01-18T02:16:00.658Z,16.30
2023-01-18T02:18:33.654Z,15.80
2023-01-18T02:21:17.954Z,16.30
2023-01-18T02:24:28.891Z,17.60
2023-01-18T02:27:05.835Z,16.80
2023-01-18T02:30:03.976Z,16.03
2023-01-18T02:32:45.729Z,16.23
2023-01-18T02:35:20.638Z,15.73
2023-01-18T02:37:56.490Z,17.73
2023-01-18T02:40:33.582Z,15.97
2023-01-18T02:43:22.343Z,17.27
2023-01-18T02:46:09.641Z,17.27
2023-01-18T02:48:39.867Z,17.27
2023-01-18T02:51:08.658Z,17.90
2023-01-18T02:53:41.420Z,16.47
2023-01-18T02:56:13.165Z,16.63
2023-01-18T02:58:45.858Z,18.20
2023-01-18T03:01:22.380Z,17.97
2023-01-18T03:03:53.111Z,17.27
2023-01-18T03:06:22.745Z,17.80
2023-01-18T03:08:53.715Z,17.07
2023-01-18T03:11:28.248Z,16.97
2023-01-18T03:14:17.792Z,17.37
2023-01-18T03:16:59.344Z,17.03
2023-01-18T03:19:58.818Z,16.97
2023-01-18T03:22:43.419Z,18.03
2023-01-18T03:25:14.998Z,18.53
2023-01-18T03:28:02.817Z,19.67
2023-01-18T03:30:49.863Z,20.97
2023-01-18T03:33:40.619Z,19.50
2023-01-18T03:36:12.456Z,18.33
2023-01-18T03:38:43.525Z,19.53
2023-01-18T03:41:12.857Z,17.50
2023-01-18T03:43:43.335Z,18.40
2023-01-18T03:46:13.247Z,18.07
2023-01-18T03:48:42.971Z,17.87
2023-01-18T03:51:19.416Z,18.90
2023-01-18T03:53:55.940Z,17.37
2023-01-18T03:56:29.371Z,17.67
2023-01-18T03:59:01.615Z,19.90
2023-01-18T04:01:30.091Z,18.53
2023-01-18T04:03:59.805Z,17.70
2023-01-18T04:06:29.126Z,21.60
2023-01-18T04:08:57.355Z,19.20
2023-01-18T04:11:25.668Z,20.07
2023-01-18T04:13:54.677Z,19.37
2023-01-18T04:16:23.179Z,20.03
2023-01-18T04:18:51.486Z,19.83
2023-01-18T04:21:21.156Z,20.07
2023-01-18T04:23:49.438Z,18.87
2023-01-18T04:26:17.717Z,18.00
2023-01-18T04:28:45.994Z,18.67
2023-01-18T04:31:14.370Z,20.35
2023-01-18T04:33:42.662Z,18.23
2023-01-18T04:36:11.077Z,17.67
2023-01-18T04:38:40.761Z,17.80
2023-01-18T04:41:09.030Z,18.00
2023-01-18T04:43:37.322Z,16.70
2023-01-18T04:46:05.836Z,15.97
2023-01-18T04:48:34.082Z,19.00
2023-01-18T04:51:02.372Z,16.33
2023-01-18T04:53:30.684Z,16.90
2023-01-18T04:56:00.391Z,16.83
2023-01-18T04:58:28.682Z,17.40
2023-01-18T05:00:57.063Z,17.33
2023-01-18T05:03:25.383Z,18.33
2023-01-18T05:05:55.576Z,17.13
2023-01-18T05:08:24.011Z,17.33
2023-01-18T05:10:52.247Z,16.40
2023-01-18T05:13:21.876Z,18.13
2023-01-18T05:15:50.123Z,17.53
2023-01-18T05:18:18.367Z,18.07
2023-01-18T05:20:47.892Z,18.83
2023-01-18T05:23:16.304Z,18.50
2023-01-18T05:25:44.905Z,18.57
2023-01-18T05:28:13.309Z,17.63
2023-01-18T05:30:43.815Z,17.77
2023-01-18T05:33:12.085Z,17.40
2023-01-18T05:35:40.353Z,16.57
2023-01-18T05:38:08.688Z,16.73
2023-01-18T05:40:36.995Z,16.10
2023-01-18T05:43:05.249Z,15.77
2023-01-18T05:45:33.549Z,17.33
2023-01-18T05:48:04.073Z,16.93
2023-01-18T05:50:32.366Z,17.50
2023-01-18T05:53:01.294Z,17.37
2023-01-18T05:55:29.867Z,17.33
2023-01-18T05:57:58.127Z,18.27
2023-01-18T06:00:26.494Z,23.67
2023-01-18T06:02:55.519Z,29.80
2023-01-18T06:05:26.487Z,49.27
2023-01-18T06:07:54.936Z,60.53
2023-01-18T06:10:23.221Z,54.03
2023-01-18T06:12:51.710Z,41.77
2023-01-18T06:15:20.093Z,33.50
2023-01-18T06:17:48.359Z,24.23
2023-01-18T06:20:17.167Z,19.53
2023-01-18T06:22:48.232Z,18.13
2023-01-18T06:25:16.565Z,17.27
2023-01-18T06:27:44.811Z,19.17
2023-01-18T06:30:13.438Z,19.77
2023-01-18T06:32:41.925Z,19.47
2023-01-18T06:35:10.437Z,20.20
2023-01-18T06:37:38.821Z,20.17
2023-01-18T06:40:10.628Z,17.90
2023-01-18T06:42:38.988Z,20.00
2023-01-18T06:45:08.072Z,24.10
2023-01-18T06:47:36.341Z,18.77
2023-01-18T06:50:04.827Z,20.00
2023-01-18T06:52:33.190Z,18.37
2023-01-18T06:55:04.920Z,16.83
2023-01-18T06:57:34.550Z,13.97
2023-01-18T07:00:06.188Z,6.30
2023-01-18T07:02:34.800Z,3.50
2023-01-18T07:05:03.152Z,3.20
2023-01-18T07:07:31.842Z,2.77
2023-01-18T07:10:00.255Z,2.97
2023-01-18T07:12:28.611Z,3.10
2023-01-18T07:14:58.320Z,2.70
2023-01-18T07:17:26.604Z,2.33
2023-01-18T07:19:55.050Z,2.57
2023-01-18T07:22:23.555Z,2.40
2023-01-18T07:24:51.843Z,2.03
2023-01-18T07:27:20.076Z,2.33
2023-01-18T07:29:49.578Z,2.43
2023-01-18T07:32:19.333Z,2.33
2023-01-18T07:34:47.672Z,2.50
2023-01-18T07:37:15.951Z,1.73
2023-01-18T07:39:44.268Z,1.90
2023-01-18T07:42:12.705Z,2.37
2023-01-18T07:44:40.933Z,2.00
2023-01-18T07:47:09.340Z,2.40
2023-01-18T07:49:38.919Z,1.93
2023-01-18T07:52:07.313Z,2.00
2023-01-18T07:54:35.689Z,1.83
2023-01-18T07:57:04.376Z,1.70
2023-01-18T07:59:33.645Z,2.27
2023-01-18T08:02:03.296Z,1.60
2023-01-18T08:04:31.700Z,1.50
2023-01-18T08:07:01.357Z,2.10
2023-01-18T08:09:29.895Z,2.43
2023-01-18T08:11:58.275Z,2.47
2023-01-18T08:14:26.755Z,1.70
2023-01-18T08:16:55.049Z,2.23
2023-01-18T08:19:23.625Z,1.50
2023-01-18T08:21:54.509Z,1.40
2023-01-18T08:24:25.099Z,1.50
2023-01-18T08:26:58.664Z,1.47
2023-01-18T08:29:28.043Z,2.10
2023-01-18T08:31:56.444Z,1.97
2023-01-18T08:34:25.279Z,1.83
2023-01-18T08:36:56.290Z,1.80
2023-01-18T08:39:31.464Z,2.23
2023-01-18T08:41:59.830Z,1.83
2023-01-18T08:44:28.726Z,1.37
2023-01-18T08:46:59.757Z,1.80
2023-01-18T08:49:32.754Z,1.73
2023-01-18T08:52:06.024Z,1.33
2023-01-18T08:54:38.099Z,1.70
2023-01-18T08:57:12.892Z,1.53
2023-01-18T08:59:41.252Z,1.50
2023-01-18T09:02:13.879Z,2.23
2023-01-18T09:04:42.404Z,1.60
2023-01-18T09:07:10.833Z,1.83
2023-01-18T09:09:41.083Z,1.50
2023-01-18T09:12:23.804Z,1.50
2023-01-18T09:14:52.087Z,1.90
2023-01-18T09:17:21.316Z,1.67
2023-01-18T09:19:49.581Z,1.47
2023-01-18T09:22:17.865Z,1.90
2023-01-18T09:24:47.512Z,1.40
2023-01-18T09:27:19.137Z,1.30
2023-01-18T09:29:52.280Z,1.80
2023-01-18T09:32:21.312Z,1.23
2023-01-18T09:34:50.816Z,1.63
2023-01-18T09:37:19.707Z,1.15
2023-01-18T09:39:52.450Z,1.60
2023-01-18T09:42:23.462Z,1.73
2023-01-18T09:44:53.784Z,1.35
2023-01-18T09:47:25.520Z,1.60
2023-01-18T09:49:56.815Z,1.00
2023-01-18T09:52:42.603Z,1.52
2023-01-18T09:55:21.209Z,1.40
2023-01-18T09:58:02.245Z,1.40
2023-01-18T10:00:34.680Z,1.58
2023-01-18T10:03:09.323Z,1.85
2023-01-18T10:05:42.787Z,1.73
2023-01-18T10:08:19.338Z,1.50
2023-01-18T10:10:57.302Z,2.05
2023-01-18T10:13:44.184Z,2.00
2023-01-18T10:16:15.592Z,1.33
2023-01-18T10:18:48.235Z,1.85
2023-01-18T10:21:32.017Z,2.33
2023-01-18T10:24:24.275Z,1.50
2023-01-18T10:27:01.867Z,1.67
2023-01-18T10:29:42.060Z,2.03
2023-01-18T10:35:58.122Z,1.20
2023-01-18T10:38:30.451Z,1.45
2023-01-18T10:41:00.252Z,1.60
2023-01-18T10:43:32.363Z,1.40
2023-01-18T10:46:00.743Z,1.40
2023-01-18T10:48:32.372Z,1.13
2023-01-18T10:51:02.728Z,1.55
2023-01-18T10:53:33.207Z,1.33
2023-01-18T10:56:04.691Z,1.45
2023-01-18T10:59:14.542Z,1.20
2023-01-18T11:01:55.168Z,1.45
2023-01-18T11:04:27.565Z,1.80
2023-01-18T11:06:58.729Z,1.55
2023-01-18T11:09:48.478Z,1.67
2023-01-18T11:12:41.504Z,1.95
2023-01-18T11:15:31.877Z,1.33
2023-01-18T11:18:12.070Z,1.58
2023-01-18T11:20:51.598Z,1.90
2023-01-18T11:23:25.486Z,1.63
2023-01-18T11:25:58.234Z,1.48
2023-01-18T11:28:29.843Z,1.60
2023-01-18T11:31:06.556Z,1.30
2023-01-18T11:33:35.087Z,1.75
2023-01-18T11:36:04.807Z,1.65
2023-01-18T11:38:35.751Z,1.38
2023-01-18T11:41:06.803Z,0.90
2023-01-18T11:43:39.514Z,2.15
2023-01-18T11:46:29.823Z,1.55
2023-01-18T11:49:04.713Z,1.20
2023-01-18T11:51:39.022Z,1.70
2023-01-18T11:54:29.059Z,1.30
2023-01-18T11:57:02.369Z,1.17
2023-01-18T11:59:32.285Z,1.33
2023-01-18T12:02:45.566Z,1.05
2023-01-18T12:05:34.357Z,1.75
2023-01-18T12:08:19.316Z,0.90
2023-01-18T12:11:04.842Z,1.52
2023-01-18T12:13:38.055Z,1.45
2023-01-18T12:16:17.104Z,1.70
2023-01-18T12:19:17.852Z,1.25
2023-01-18T12:22:02.010Z,1.20
2023-01-18T12:24:40.756Z,1.05
2023-01-18T12:27:20.195Z,1.35
2023-01-18T12:30:19.767Z,1.65
2023-01-18T12:33:18.925Z,1.35
2023-01-18T12:36:15.089Z,0.88
2023-01-18T12:38:51.556Z,1.27
2023-01-18T12:41:49.171Z,1.60
2023-01-18T12:44:41.503Z,1.38
2023-01-18T12:47:25.140Z,1.35
2023-01-18T12:49:59.464Z,1.50
2023-01-18T12:52:35.565Z,1.58
2023-01-18T12:55:07.228Z,1.30
2023-01-18T12:57:36.546Z,1.10
2023-01-18T13:00:09.311Z,1.23
2023-01-18T13:02:41.870Z,1.50
2023-01-18T13:05:19.176Z,1.02
2023-01-18T13:07:53.491Z,1.30
2023-01-18T13:10:24.763Z,1.40
2023-01-18T13:12:55.343Z,2.17
2023-01-18T13:15:34.212Z,1.48
2023-01-18T13:18:12.494Z,0.93
2023-01-18T13:21:00.500Z,1.20
2023-01-18T13:23:39.842Z,0.98
2023-01-18T13:26:21.957Z,1.38
2023-01-18T13:29:06.554Z,0.82
2023-01-18T13:31:35.213Z,0.90
2023-01-18T13:34:04.563Z,1.35
2023-01-18T13:36:45.920Z,1.35
2023-01-18T13:39:18.699Z,1.53
2023-01-18T13:42:09.205Z,1.27
2023-01-18T13:44:45.974Z,1.23
2023-01-18T13:47:49.616Z,1.40
2023-01-18T13:50:41.466Z,1.05
2023-01-18T13:53:21.214Z,1.50
2023-01-18T13:56:10.443Z,1.30
2023-01-18T13:58:40.215Z,1.25
2023-01-18T14:01:21.037Z,1.33
2023-01-18T14:03:51.213Z,1.40
2023-01-18T14:06:33.131Z,1.52
2023-01-18T14:09:08.373Z,1.45
2023-01-18T14:11:43.691Z,1.30
2023-01-18T14:14:26.950Z,1.33
2023-01-18T14:16:59.211Z,1.20
2023-01-18T14:19:29.254Z,1.17
2023-01-18T14:22:31.428Z,1.52
2023-01-18T14:25:18.340Z,1.42
2023-01-18T14:27:53.198Z,1.30
2023-01-18T14:30:28.220Z,1.25
2023-01-18T14:33:01.745Z,1.52
2023-01-18T14:35:30.266Z,1.23
2023-01-18T14:38:17.402Z,1.77
2023-01-18T14:40:48.690Z,1.30
2023-01-18T14:43:24.294Z,1.20
2023-01-18T14:45:57.820Z,1.33
2023-01-18T14:48:26.635Z,1.75
2023-01-18T14:50:56.790Z,1.65
2023-01-18T14:53:29.095Z,1.35
2023-01-18T14:56:06.129Z,1.27
2023-01-18T14:58:39.300Z,1.98
2023-01-18T15:01:09.572Z,1.75
2023-01-18T15:03:37.936Z,1.63
2023-01-18T15:06:16.360Z,1.98
2023-01-18T15:08:47.695Z,1.77
2023-01-18T15:11:16.186Z,1.60
2023-01-18T15:13:50.446Z,2.00
2023-01-18T15:16:21.422Z,2.22
2023-01-18T15:18:50.972Z,1.92
2023-01-18T15:21:23.189Z,1.73
2023-01-18T15:23:53.977Z,1.85
2023-01-18T15:26:36.800Z,2.50
2023-01-18T15:29:15.540Z,1.73
2023-01-18T15:31:53.737Z,2.08
2023-01-18T15:34:28.092Z,1.65
2023-01-18T15:36:57.931Z,1.50
2023-01-18T15:39:26.518Z,2.03
2023-01-18T15:41:57.595Z,1.83
2023-01-18T15:44:41.164Z,2.05
2023-01-18T15:47:17.900Z,1.88
2023-01-18T15:49:48.899Z,2.03
2023-01-18T15:52:18.341Z,2.10
2023-01-18T15:54:51.252Z,1.60
2023-01-18T15:57:21.335Z,1.52
2023-01-18T15:59:51.144Z,1.60
2023-01-18T16:02:21.706Z,2.42
2023-01-18T16:05:09.465Z,2.10
2023-01-18T16:07:41.972Z,2.03
2023-01-18T16:10:27.903Z,2.23
2023-01-18T16:12:57.873Z,1.98
2023-01-18T16:15:30.742Z,2.43
2023-01-18T16:18:03.699Z,2.20
2023-01-18T16:20:35.888Z,1.93
2023-01-18T16:23:09.272Z,2.67
2023-01-18T16:25:38.362Z,2.13
2023-01-18T16:28:06.855Z,2.30
2023-01-18T16:30:39.500Z,2.17
2023-01-18T16:33:10.006Z,1.90
2023-01-18T16:35:39.953Z,2.17
2023-01-18T16:38:12.838Z,2.10
2023-01-18T16:40:43.957Z,2.30
2023-01-18T16:43:29.733Z,2.27
2023-01-18T16:46:00.114Z,1.93
2023-01-18T16:48:30.773Z,2.23
2023-01-18T16:51:00.482Z,2.37
2023-01-18T16:54:24.207Z,1.67
2023-01-18T16:57:28.595Z,1.90
2023-01-18T16:59:56.941Z,2.47
2023-01-18T17:02:26.702Z,2.47
2023-01-18T17:12:36.430Z,1.73
2023-01-18T17:15:05.036Z,2.10
2023-01-18T17:17:34.904Z,2.30
2023-01-18T17:20:03.546Z,2.58
2023-01-18T17:22:32.065Z,2.13
2023-01-18T17:25:00.350Z,2.13
2023-01-18T17:27:28.624Z,2.67
2023-01-18T17:29:56.914Z,2.97
2023-01-18T17:32:25.199Z,2.30
2023-01-18T17:34:54.941Z,2.73
2023-01-18T17:37:23.262Z,2.50
2023-01-18T17:40:10.996Z,2.97
2023-01-18T17:42:39.835Z,2.10
2023-01-18T17:45:10.072Z,2.30
2023-01-18T17:47:39.112Z,2.50
2023-01-18T17:50:11.924Z,2.33
2023-01-18T17:52:41.700Z,2.93
2023-01-18T17:55:14.332Z,59.27
2023-01-18T17:57:44.737Z,67.33
2023-01-18T18:00:15.790Z,49.97
2023-01-18T18:02:44.277Z,6.47
2023-01-18T18:05:14.279Z,18.60
2023-01-18T18:07:42.559Z,4.73
2023-01-18T18:10:12.396Z,3.60
2023-01-18T18:12:40.825Z,3.17
2023-01-18T18:15:14.913Z,3.13
2023-01-18T18:17:43.223Z,2.70
2023-01-18T18:20:14.441Z,3.17
2023-01-18T18:22:45.183Z,3.40
2023-01-18T18:25:13.879Z,3.67
2023-01-18T18:27:46.492Z,4.73
2023-01-18T18:30:16.808Z,3.53
2023-01-18T18:32:45.164Z,3.03
2023-01-18T18:35:24.838Z,3.70
2023-01-18T18:37:55.642Z,3.23
2023-01-18T18:40:24.099Z,3.97
2023-01-18T18:43:01.840Z,3.70
2023-01-18T18:45:32.091Z,4.10
2023-01-18T18:48:00.562Z,4.00
2023-01-18T18:50:30.929Z,4.17
2023-01-18T18:53:00.168Z,4.27
2023-01-18T18:55:29.039Z,4.50
2023-01-18T18:57:57.423Z,5.30
2023-01-18T19:00:27.013Z,4.50
2023-01-18T19:02:59.451Z,5.20
2023-01-18T19:05:29.886Z,5.90
2023-01-18T19:07:58.530Z,5.10
2023-01-18T19:10:30.441Z,5.33
2023-01-18T19:12:59.785Z,5.40
2023-01-18T19:15:28.602Z,5.17
2023-01-18T19:17:59.131Z,5.37
2023-01-18T19:20:27.488Z,5.07
2023-01-18T19:22:57.196Z,5.07
2023-01-18T19:25:26.317Z,6.47
2023-01-18T19:27:54.699Z,5.40
2023-01-18T19:30:22.976Z,9.07
2023-01-18T19:32:54.710Z,7.97
2023-01-18T19:35:22.968Z,9.00
2023-01-18T19:37:51.330Z,10.07
2023-01-18T19:40:21.760Z,9.17
2023-01-18T19:42:54.988Z,8.43
2023-01-18T19:45:28.108Z,10.63
2023-01-18T19:47:58.424Z,12.07
2023-01-18T19:50:27.627Z,15.63
2023-01-18T19:52:56.060Z,14.20
2023-01-18T19:55:25.827Z,19.07
2023-01-18T19:57:58.260Z,20.13
2023-01-18T20:00:27.631Z,18.93
2023-01-18T20:02:55.979Z,20.60
2023-01-18T20:05:24.322Z,19.93
2023-01-18T20:07:52.640Z,18.73
2023-01-18T20:10:21.276Z,18.33
2023-01-18T20:12:52.775Z,18.27
2023-01-18T20:15:21.319Z,19.03
2023-01-18T20:17:49.657Z,17.73
2023-01-18T20:20:31.368Z,17.70
2023-01-18T20:23:00.309Z,18.70
2023-01-18T20:25:28.760Z,19.93
2023-01-18T20:27:58.411Z,22.23
2023-01-18T20:30:27.090Z,18.83
2023-01-18T20:32:58.355Z,18.43
2023-01-18T20:35:27.537Z,18.40
2023-01-18T20:37:56.467Z,19.70
2023-01-18T20:40:24.921Z,19.63
2023-01-18T20:42:53.272Z,20.40
2023-01-18T20:45:23.012Z,20.97
2023-01-18T20:47:51.329Z,23.53
2023-01-18T20:50:23.130Z,22.53
2023-01-18T20:52:51.721Z,22.10
2023-01-18T20:55:20.087Z,22.57
2023-01-18T20:57:51.931Z,23.40
2023-01-18T21:00:22.674Z,18.07
2023-01-18T21:02:51.129Z,17.13
2023-01-18T21:05:19.863Z,16.13
2023-01-18T21:07:48.221Z,16.87
2023-01-18T21:10:16.779Z,18.37
2023-01-18T21:12:45.051Z,19.10
2023-01-18T21:15:13.799Z,16.87
2023-01-18T21:17:43.426Z,16.03
2023-01-18T21:20:12.812Z,15.27
2023-01-18T21:22:41.138Z,15.50
2023-01-18T21:25:09.971Z,14.67
2023-01-18T21:27:43.130Z,15.33
2023-01-18T21:30:12.873Z,14.20
2023-01-18T21:32:42.683Z,16.30
2023-01-18T21:35:11.818Z,14.17
2023-01-18T21:37:40.145Z,17.03
2023-01-18T21:40:10.000Z,16.00
2023-01-18T21:42:55.811Z,16.37
2023-01-18T21:45:41.341Z,17.50
2023-01-18T21:48:11.228Z,17.30
2023-01-18T21:50:58.219Z,16.43
2023-01-18T21:53:44.175Z,19.97
2023-01-18T21:56:12.562Z,20.93
2023-01-18T21:58:57.880Z,23.93
2023-01-18T22:01:28.182Z,24.10
2023-01-18T22:04:14.995Z,18.97
2023-01-18T22:06:43.215Z,20.13
2023-01-18T22:09:11.782Z,20.23
2023-01-18T22:11:40.149Z,18.83
2023-01-18T22:14:10.115Z,20.03
2023-01-18T22:16:38.992Z,20.40
2023-01-18T22:19:08.997Z,19.67
2023-01-18T22:21:37.288Z,18.90
2023-01-18T22:24:05.992Z,18.80
2023-01-18T22:26:36.256Z,17.73
2023-01-18T22:29:04.763Z,16.13
2023-01-18T22:31:33.359Z,17.43
2023-01-18T22:34:04.392Z,15.93
2023-01-18T22:36:34.476Z,15.53
2023-01-18T22:39:02.731Z,13.03
2023-01-18T22:41:31.195Z,14.23
2023-01-18T22:43:59.504Z,12.13
2023-01-18T22:46:28.793Z,11.07
2023-01-18T22:48:57.132Z,12.07
2023-01-18T22:51:25.412Z,12.43
2023-01-18T22:53:56.383Z,11.47
2023-01-18T22:56:25.994Z,11.73
2023-01-18T22:58:54.502Z,10.47
2023-01-18T23:01:25.102Z,10.50
2023-01-18T23:03:54.448Z,10.90
2023-01-18T23:06:23.129Z,10.20
2023-01-18T23:08:52.680Z,8.87
2023-01-18T23:11:24.331Z,8.33
2023-01-18T23:14:12.772Z,7.60
2023-01-18T23:16:58.631Z,7.10
2023-01-18T23:19:29.544Z,6.90
2023-01-18T23:21:58.696Z,7.53
2023-01-18T23:24:27.755Z,6.93
2023-01-18T23:26:57.517Z,6.87
2023-01-18T23:29:25.959Z,7.43
2023-01-18T23:31:54.275Z,5.77
2023-01-18T23:34:22.914Z,5.70
2023-01-18T23:36:51.687Z,5.50
2023-01-18T23:39:37.332Z,5.63
2023-01-18T23:42:24.780Z,5.63
2023-01-18T23:45:10.437Z,6.87
2023-01-18T23:47:56.390Z,6.43
2023-01-18T23:50:42.161Z,7.03
2023-01-18T23:53:31.399Z,6.77
2023-01-18T23:55:59.793Z,8.23
2023-01-18T23:58:29.754Z,8.87
